Ana Sayfa
METAR-TAF:

METAR-TAF

Havaalanları :

Culiacán, Meksika

Enlem: 24-49N, Boylam: 107-24W, yükseklik: 39 m

Güncel hava durumu gözlemi

Rapor saat 04:40 UTC de 2 saat ve 15 dakika önce yapıldı.
Sakin rüzgar
Sıcaklık 27°C
Nem 51%
Basınç 1012 hPa
Görüş mesafesi: 16.1 km
25000 ft yükseklikte az bulutlu

METAR: MMCL 200440Z 00000KT 10SM FEW250 27/16 A2987 RMK 8/004 HZY

Saat: 00:55 (06:55 UTC)

Tahmin

Rapor saat 04:53 UTC de 2 saat ve 2 dakika önce yapıldı.
Ayın 20'si saat 06 UTC'den ayın 21'si saat 06 UTC'ye kadar geçerli Tahmin
Rüzgar kuzeydan kt
Görüş mesafesi: 10 km
25000 ft yükseklikte parçalı bulutlu
Ayın 20'si saat 1800 UTC'den
Rüzgar güneybatıdan 10 kt
Görüş mesafesi: 10 km
25000 ft yükseklikte parçalı bulutlu
Ayın 21'si saat 0400 UTC'den
Rüzgar güneybatıdan 5 kt
Görüş mesafesi: 10 km
25000 ft yükseklikte parçalı bulutlu

TAF: MMCL 200453Z 2006/2106 00000KT P6SM SCT250 FM201800 23010KT P6SM SCT250 FM210400 23005KT P6SM SCT250

4.000'den fazla havaalanı için hava durumu gözlemleri ve tahminleri (METAR ve TAF raporları).

Kullanılabilir istasyonlar harita üzerinde sarı ve kırmızı noktalarla gösterilir.

İstasyonun adını görmek için fareyi noktanın üzerinde gezdirin.

Sonrasında hava gözlem ve tahminlerini görmek için tıklayın.

Haritayı değiştirmek için: yaklaştırmak için siyah artı işaretli yeşil düğmeye ve uzaklaştırmak için de eksi işaretli düğmeye hızla tıklayın; bitişik haritalar için yeşil okları kullanın.


METAR-TAF: